sensor_id;sensor_type;location;lat;lon;timestamp;pressure;altitude;pressure_sealevel;temperature;humidity
61682;BME280;47577;43.610;25.010;2023-04-30T00:02:07;100192.94;;;10.56;74.35
61682;BME280;47577;43.610;25.010;2023-04-30T00:04:33;100197.38;;;10.55;74.97
61682;BME280;47577;43.610;25.010;2023-04-30T00:06:58;100188.47;;;10.33;75.21
61682;BME280;47577;43.610;25.010;2023-04-30T00:09:25;100186.88;;;10.27;75.02
61682;BME280;47577;43.610;25.010;2023-04-30T00:11:50;100192.34;;;10.22;74.72
61682;BME280;47577;43.610;25.010;2023-04-30T00:14:16;100195.97;;;10.20;74.71
61682;BME280;47577;43.610;25.010;2023-04-30T00:16:42;100194.53;;;10.11;74.66
61682;BME280;47577;43.610;25.010;2023-04-30T00:19:07;100185.00;;;10.04;75.52
61682;BME280;47577;43.610;25.010;2023-04-30T00:21:33;100188.94;;;9.94;74.07
61682;BME280;47577;43.610;25.010;2023-04-30T00:23:58;100190.03;;;9.88;75.33
61682;BME280;47577;43.610;25.010;2023-04-30T00:26:28;100184.44;;;9.69;74.72
61682;BME280;47577;43.610;25.010;2023-04-30T00:28:54;100189.97;;;9.63;74.72
61682;BME280;47577;43.610;25.010;2023-04-30T00:31:20;100199.16;;;9.52;74.67
61682;BME280;47577;43.610;25.010;2023-04-30T00:33:46;100162.16;;;9.20;75.08
61682;BME280;47577;43.610;25.010;2023-04-30T00:36:12;100195.25;;;9.36;74.69
61682;BME280;47577;43.610;25.010;2023-04-30T00:38:37;100183.97;;;9.29;75.38
61682;BME280;47577;43.610;25.010;2023-04-30T00:41:04;100188.22;;;9.35;74.93
61682;BME280;47577;43.610;25.010;2023-04-30T00:43:30;100188.31;;;9.32;74.18
61682;BME280;47577;43.610;25.010;2023-04-30T00:45:56;100173.44;;;9.26;75.46
61682;BME280;47577;43.610;25.010;2023-04-30T00:48:23;100187.81;;;9.19;74.50
61682;BME280;47577;43.610;25.010;2023-04-30T00:50:49;100190.75;;;9.10;74.91
61682;BME280;47577;43.610;25.010;2023-04-30T00:53:15;100191.78;;;9.06;74.13
61682;BME280;47577;43.610;25.010;2023-04-30T00:55:43;100200.69;;;9.03;74.37
61682;BME280;47577;43.610;25.010;2023-04-30T00:58:08;100192.19;;;8.92;75.15
61682;BME280;47577;43.610;25.010;2023-04-30T01:00:34;100202.84;;;8.90;74.20
61682;BME280;47577;43.610;25.010;2023-04-30T01:03:00;100196.69;;;8.90;75.72
61682;BME280;47577;43.610;25.010;2023-04-30T01:05:26;100188.22;;;8.77;74.63
61682;BME280;47577;43.610;25.010;2023-04-30T01:07:53;100187.63;;;8.67;75.51
61682;BME280;47577;43.610;25.010;2023-04-30T01:10:22;100189.63;;;8.59;75.90
61682;BME280;47577;43.610;25.010;2023-04-30T01:13:18;100185.75;;;8.39;76.65
61682;BME280;47577;43.610;25.010;2023-04-30T01:18:28;100186.84;;;8.31;76.72
61682;BME280;47577;43.610;25.010;2023-04-30T01:21:08;100187.78;;;8.30;76.50
61682;BME280;47577;43.610;25.010;2023-04-30T01:29:15;100179.31;;;8.17;76.80
61682;BME280;47577;43.610;25.010;2023-04-30T01:31:43;100177.59;;;8.14;77.60
61682;BME280;47577;43.610;25.010;2023-04-30T01:34:09;100167.78;;;8.18;76.77
61682;BME280;47577;43.610;25.010;2023-04-30T01:37:05;100177.44;;;8.20;76.45
61682;BME280;47577;43.610;25.010;2023-04-30T01:42:21;100168.63;;;8.20;77.49
61682;BME280;47577;43.610;25.010;2023-04-30T01:47:51;100170.16;;;8.29;77.13
61682;BME280;47577;43.610;25.010;2023-04-30T01:53:41;100152.69;;;8.21;78.23
61682;BME280;47577;43.610;25.010;2023-04-30T01:56:16;100162.28;;;8.26;78.58
61682;BME280;47577;43.610;25.010;2023-04-30T01:58:44;100159.75;;;8.21;78.23
61682;BME280;47577;43.610;25.010;2023-04-30T02:01:28;100153.63;;;8.19;78.61
61682;BME280;47577;43.610;25.010;2023-04-30T02:03:54;100146.72;;;8.15;77.05
61682;BME280;47577;43.610;25.010;2023-04-30T02:06:19;100158.69;;;8.28;78.62
61682;BME280;47577;43.610;25.010;2023-04-30T02:08:45;100150.78;;;8.27;78.74
61682;BME280;47577;43.610;25.010;2023-04-30T02:11:11;100158.38;;;8.39;77.13
61682;BME280;47577;43.610;25.010;2023-04-30T02:13:37;100150.63;;;8.33;77.44
61682;BME280;47577;43.610;25.010;2023-04-30T02:16:02;100155.63;;;8.44;77.60
61682;BME280;47577;43.610;25.010;2023-04-30T02:18:28;100147.00;;;8.35;79.24
61682;BME280;47577;43.610;25.010;2023-04-30T02:20:54;100157.38;;;8.45;77.98
61682;BME280;47577;43.610;25.010;2023-04-30T02:23:19;100156.50;;;8.44;78.50
61682;BME280;47577;43.610;25.010;2023-04-30T02:25:45;100154.63;;;8.48;78.25
61682;BME280;47577;43.610;25.010;2023-04-30T02:28:11;100163.19;;;8.57;76.99
61682;BME280;47577;43.610;25.010;2023-04-30T02:30:36;100156.19;;;8.55;76.63
61682;BME280;47577;43.610;25.010;2023-04-30T02:33:02;100165.16;;;8.51;78.45
61682;BME280;47577;43.610;25.010;2023-04-30T02:35:29;100160.91;;;8.44;77.40
61682;BME280;47577;43.610;25.010;2023-04-30T02:37:55;100152.97;;;8.44;77.74
61682;BME280;47577;43.610;25.010;2023-04-30T02:40:20;100162.56;;;8.48;78.88
61682;BME280;47577;43.610;25.010;2023-04-30T02:42:46;100166.81;;;8.53;77.78
61682;BME280;47577;43.610;25.010;2023-04-30T02:45:12;100160.75;;;8.50;77.67
61682;BME280;47577;43.610;25.010;2023-04-30T02:47:38;100171.22;;;8.54;77.29
61682;BME280;47577;43.610;25.010;2023-04-30T02:50:04;100152.16;;;8.40;77.81
61682;BME280;47577;43.610;25.010;2023-04-30T02:52:30;100153.03;;;8.40;78.02
61682;BME280;47577;43.610;25.010;2023-04-30T02:54:56;100159.16;;;8.44;77.49
61682;BME280;47577;43.610;25.010;2023-04-30T02:57:21;100163.56;;;8.44;78.44
61682;BME280;47577;43.610;25.010;2023-04-30T02:59:47;100166.94;;;8.49;77.79
61682;BME280;47577;43.610;25.010;2023-04-30T03:02:13;100169.66;;;8.47;78.72
61682;BME280;47577;43.610;25.010;2023-04-30T03:04:38;100162.56;;;8.48;79.65
61682;BME280;47577;43.610;25.010;2023-04-30T03:07:04;100161.59;;;8.50;78.17
61682;BME280;47577;43.610;25.010;2023-04-30T03:09:31;100168.44;;;8.59;78.94
61682;BME280;47577;43.610;25.010;2023-04-30T03:11:56;100168.47;;;8.57;77.26
61682;BME280;47577;43.610;25.010;2023-04-30T03:14:22;100168.25;;;8.65;76.95
61682;BME280;47577;43.610;25.010;2023-04-30T03:16:48;100161.09;;;8.69;78.97
61682;BME280;47577;43.610;25.010;2023-04-30T03:19:13;100169.53;;;8.82;79.62
61682;BME280;47577;43.610;25.010;2023-04-30T03:21:39;100179.88;;;8.91;77.91
61682;BME280;47577;43.610;25.010;2023-04-30T03:24:05;100174.25;;;9.00;77.26
61682;BME280;47577;43.610;25.010;2023-04-30T03:26:31;100167.91;;;9.06;75.81
61682;BME280;47577;43.610;25.010;2023-04-30T03:28:57;100164.03;;;9.16;78.54
61682;BME280;47577;43.610;25.010;2023-04-30T03:31:22;100177.94;;;9.24;78.07
61682;BME280;47577;43.610;25.010;2023-04-30T03:33:48;100175.91;;;9.32;80.13
61682;BME280;47577;43.610;25.010;2023-04-30T03:36:14;100177.41;;;9.41;78.80
61682;BME280;47577;43.610;25.010;2023-04-30T03:38:40;100187.69;;;9.50;78.25
61682;BME280;47577;43.610;25.010;2023-04-30T03:41:07;100184.19;;;9.50;79.64
61682;BME280;47577;43.610;25.010;2023-04-30T03:43:32;100188.75;;;9.46;79.08
61682;BME280;47577;43.610;25.010;2023-04-30T03:45:58;100195.00;;;9.44;78.84
61682;BME280;47577;43.610;25.010;2023-04-30T03:48:24;100194.19;;;9.42;79.28
61682;BME280;47577;43.610;25.010;2023-04-30T03:50:49;100197.50;;;9.48;80.65
61682;BME280;47577;43.610;25.010;2023-04-30T03:53:15;100195.66;;;9.50;80.67
61682;BME280;47577;43.610;25.010;2023-04-30T03:55:41;100192.97;;;9.52;80.12
61682;BME280;47577;43.610;25.010;2023-04-30T03:58:06;100190.06;;;9.60;80.57
61682;BME280;47577;43.610;25.010;2023-04-30T04:00:32;100193.28;;;9.69;78.74
61682;BME280;47577;43.610;25.010;2023-04-30T04:02:58;100195.19;;;9.66;78.90
61682;BME280;47577;43.610;25.010;2023-04-30T04:05:24;100192.75;;;9.58;78.29
61682;BME280;47577;43.610;25.010;2023-04-30T04:07:50;100196.28;;;9.85;80.11
61682;BME280;47577;43.610;25.010;2023-04-30T04:10:16;100200.41;;;9.94;78.29
61682;BME280;47577;43.610;25.010;2023-04-30T04:12:42;100198.28;;;10.04;76.93
61682;BME280;47577;43.610;25.010;2023-04-30T04:15:08;100193.44;;;10.17;76.74
61682;BME280;47577;43.610;25.010;2023-04-30T04:17:34;100200.97;;;10.29;76.08
61682;BME280;47577;43.610;25.010;2023-04-30T04:19:59;100198.06;;;10.37;76.87
61682;BME280;47577;43.610;25.010;2023-04-30T04:22:25;100195.91;;;10.48;76.45
61682;BME280;47577;43.610;25.010;2023-04-30T04:24:50;100202.50;;;10.61;75.83
61682;BME280;47577;43.610;25.010;2023-04-30T04:27:16;100196.84;;;10.71;76.35
61682;BME280;47577;43.610;25.010;2023-04-30T04:29:43;100203.31;;;10.87;77.29
61682;BME280;47577;43.610;25.010;2023-04-30T04:32:08;100200.41;;;10.93;76.83
61682;BME280;47577;43.610;25.010;2023-04-30T04:34:34;100209.19;;;10.95;77.08
61682;BME280;47577;43.610;25.010;2023-04-30T04:37:00;100195.78;;;10.98;77.03
61682;BME280;47577;43.610;25.010;2023-04-30T04:39:28;100209.03;;;11.00;75.56
61682;BME280;47577;43.610;25.010;2023-04-30T04:41:54;100211.63;;;11.02;73.59
61682;BME280;47577;43.610;25.010;2023-04-30T04:44:20;100212.13;;;11.11;76.61
61682;BME280;47577;43.610;25.010;2023-04-30T04:46:46;100230.94;;;11.29;77.42
61682;BME280;47577;43.610;25.010;2023-04-30T04:49:11;100224.41;;;11.38;76.40
61682;BME280;47577;43.610;25.010;2023-04-30T04:51:38;100223.16;;;11.46;73.73
61682;BME280;47577;43.610;25.010;2023-04-30T04:54:04;100235.06;;;11.60;74.67
61682;BME280;47577;43.610;25.010;2023-04-30T04:56:30;100234.56;;;11.72;74.13
61682;BME280;47577;43.610;25.010;2023-04-30T04:58:57;100230.84;;;11.76;72.82
61682;BME280;47577;43.610;25.010;2023-04-30T05:01:23;100238.38;;;11.87;73.06
61682;BME280;47577;43.610;25.010;2023-04-30T05:03:49;100241.59;;;11.95;73.18
61682;BME280;47577;43.610;25.010;2023-04-30T05:06:15;100229.84;;;12.01;72.82
61682;BME280;47577;43.610;25.010;2023-04-30T05:08:40;100234.56;;;12.15;73.01
61682;BME280;47577;43.610;25.010;2023-04-30T05:11:06;100235.97;;;12.23;75.14
61682;BME280;47577;43.610;25.010;2023-04-30T05:13:32;100232.09;;;12.31;74.81
61682;BME280;47577;43.610;25.010;2023-04-30T05:15:57;100234.44;;;12.38;72.25
61682;BME280;47577;43.610;25.010;2023-04-30T05:18:23;100237.50;;;12.50;70.85
61682;BME280;47577;43.610;25.010;2023-04-30T05:20:48;100228.22;;;12.58;68.96
61682;BME280;47577;43.610;25.010;2023-04-30T05:23:14;100232.28;;;12.67;68.85
61682;BME280;47577;43.610;25.010;2023-04-30T05:25:39;100232.75;;;12.77;64.82
61682;BME280;47577;43.610;25.010;2023-04-30T05:28:05;100236.78;;;12.86;64.50
61682;BME280;47577;43.610;25.010;2023-04-30T05:30:31;100233.81;;;12.92;64.95
61682;BME280;47577;43.610;25.010;2023-04-30T05:32:57;100237.50;;;12.89;64.96
61682;BME280;47577;43.610;25.010;2023-04-30T05:35:22;100235.19;;;13.01;64.67
61682;BME280;47577;43.610;25.010;2023-04-30T05:37:49;100241.28;;;13.04;64.66
61682;BME280;47577;43.610;25.010;2023-04-30T05:40:14;100242.44;;;13.17;63.37
61682;BME280;47577;43.610;25.010;2023-04-30T05:42:41;100244.81;;;13.24;63.95
61682;BME280;47577;43.610;25.010;2023-04-30T05:45:11;100236.53;;;13.30;63.23
61682;BME280;47577;43.610;25.010;2023-04-30T05:47:39;100243.75;;;13.47;65.38
61682;BME280;47577;43.610;25.010;2023-04-30T05:50:06;100233.31;;;13.60;65.31
61682;BME280;47577;43.610;25.010;2023-04-30T05:52:32;100226.91;;;13.64;68.22
61682;BME280;47577;43.610;25.010;2023-04-30T05:54:57;100234.00;;;13.82;67.28
61682;BME280;47577;43.610;25.010;2023-04-30T05:57:23;100232.66;;;13.91;69.06
61682;BME280;47577;43.610;25.010;2023-04-30T05:59:49;100232.38;;;14.15;67.90
61682;BME280;47577;43.610;25.010;2023-04-30T06:02:15;100231.53;;;14.48;64.80
61682;BME280;47577;43.610;25.010;2023-04-30T06:04:40;100229.16;;;14.59;64.18
61682;BME280;47577;43.610;25.010;2023-04-30T06:07:07;100232.16;;;14.70;62.14
61682;BME280;47577;43.610;25.010;2023-04-30T06:09:32;100240.41;;;14.83;59.43
61682;BME280;47577;43.610;25.010;2023-04-30T06:11:58;100242.47;;;14.78;60.05
61682;BME280;47577;43.610;25.010;2023-04-30T06:14:24;100243.78;;;14.87;59.85
61682;BME280;47577;43.610;25.010;2023-04-30T06:16:50;100246.13;;;14.93;60.29
61682;BME280;47577;43.610;25.010;2023-04-30T06:19:15;100251.59;;;15.07;60.99
61682;BME280;47577;43.610;25.010;2023-04-30T06:21:41;100254.09;;;15.10;57.81
61682;BME280;47577;43.610;25.010;2023-04-30T06:24:10;100262.41;;;15.22;59.54
61682;BME280;47577;43.610;25.010;2023-04-30T06:26:35;100259.66;;;15.23;58.24
61682;BME280;47577;43.610;25.010;2023-04-30T06:29:01;100247.97;;;15.08;58.16
61682;BME280;47577;43.610;25.010;2023-04-30T06:31:27;100252.69;;;14.87;57.13
61682;BME280;47577;43.610;25.010;2023-04-30T06:33:52;100262.22;;;15.09;58.08
61682;BME280;47577;43.610;25.010;2023-04-30T06:36:18;100263.63;;;15.32;56.64
61682;BME280;47577;43.610;25.010;2023-04-30T06:38:45;100249.88;;;15.38;57.88
61682;BME280;47577;43.610;25.010;2023-04-30T06:41:11;100256.81;;;15.42;57.04
61682;BME280;47577;43.610;25.010;2023-04-30T06:43:37;100254.38;;;15.22;55.97
61682;BME280;47577;43.610;25.010;2023-04-30T06:46:02;100252.97;;;15.30;55.06
61682;BME280;47577;43.610;25.010;2023-04-30T06:48:29;100256.03;;;15.24;55.84
61682;BME280;47577;43.610;25.010;2023-04-30T06:50:55;100264.72;;;15.12;55.33
61682;BME280;47577;43.610;25.010;2023-04-30T06:53:21;100265.09;;;14.88;55.26
61682;BME280;47577;43.610;25.010;2023-04-30T06:55:47;100259.50;;;14.93;57.52
61682;BME280;47577;43.610;25.010;2023-04-30T06:58:13;100268.88;;;15.02;55.07
61682;BME280;47577;43.610;25.010;2023-04-30T07:00:39;100254.19;;;15.09;55.97
61682;BME280;47577;43.610;25.010;2023-04-30T07:03:08;100275.47;;;15.28;57.77
61682;BME280;47577;43.610;25.010;2023-04-30T07:05:33;100268.56;;;15.40;55.67
61682;BME280;47577;43.610;25.010;2023-04-30T07:08:00;100274.16;;;15.51;56.54
61682;BME280;47577;43.610;25.010;2023-04-30T07:10:27;100268.63;;;15.38;53.74
61682;BME280;47577;43.610;25.010;2023-04-30T07:12:53;100267.25;;;15.15;54.82
61682;BME280;47577;43.610;25.010;2023-04-30T07:15:19;100278.88;;;15.14;54.55
61682;BME280;47577;43.610;25.010;2023-04-30T07:17:45;100274.34;;;15.32;55.11
61682;BME280;47577;43.610;25.010;2023-04-30T07:20:11;100274.09;;;15.52;55.83
61682;BME280;47577;43.610;25.010;2023-04-30T07:22:39;100265.06;;;15.69;53.09
61682;BME280;47577;43.610;25.010;2023-04-30T07:25:05;100258.59;;;15.73;54.06
61682;BME280;47577;43.610;25.010;2023-04-30T07:27:31;100259.13;;;15.96;52.71
61682;BME280;47577;43.610;25.010;2023-04-30T07:29:56;100268.34;;;16.06;52.46
61682;BME280;47577;43.610;25.010;2023-04-30T07:32:22;100264.94;;;16.19;52.28
61682;BME280;47577;43.610;25.010;2023-04-30T07:34:52;100263.63;;;15.96;50.91
61682;BME280;47577;43.610;25.010;2023-04-30T07:37:17;100255.50;;;15.97;51.33
61682;BME280;47577;43.610;25.010;2023-04-30T07:39:43;100260.16;;;16.24;53.04
61682;BME280;47577;43.610;25.010;2023-04-30T07:42:09;100250.91;;;16.30;52.65
61682;BME280;47577;43.610;25.010;2023-04-30T07:44:34;100262.44;;;16.16;51.82
61682;BME280;47577;43.610;25.010;2023-04-30T07:47:00;100264.88;;;16.04;49.71
61682;BME280;47577;43.610;25.010;2023-04-30T07:49:27;100260.28;;;16.37;51.92
61682;BME280;47577;43.610;25.010;2023-04-30T07:51:53;100256.41;;;16.42;47.18
61682;BME280;47577;43.610;25.010;2023-04-30T07:54:19;100264.34;;;16.58;46.14
61682;BME280;47577;43.610;25.010;2023-04-30T07:56:44;100274.75;;;16.79;47.58
61682;BME280;47577;43.610;25.010;2023-04-30T07:59:10;100270.22;;;16.79;44.61
61682;BME280;47577;43.610;25.010;2023-04-30T08:01:36;100280.94;;;16.51;45.98
61682;BME280;47577;43.610;25.010;2023-04-30T08:04:01;100259.72;;;16.32;47.38
61682;BME280;47577;43.610;25.010;2023-04-30T08:06:27;100269.53;;;16.17;47.38
61682;BME280;47577;43.610;25.010;2023-04-30T08:08:53;100277.84;;;16.42;46.21
61682;BME280;47577;43.610;25.010;2023-04-30T08:11:18;100270.50;;;16.60;47.47
61682;BME280;47577;43.610;25.010;2023-04-30T08:13:44;100275.50;;;16.81;46.72
61682;BME280;47577;43.610;25.010;2023-04-30T08:16:12;100276.81;;;16.90;47.80
61682;BME280;47577;43.610;25.010;2023-04-30T08:18:38;100268.25;;;17.12;45.48
61682;BME280;47577;43.610;25.010;2023-04-30T08:21:05;100275.06;;;17.17;44.59
61682;BME280;47577;43.610;25.010;2023-04-30T08:23:31;100269.22;;;17.25;44.09
61682;BME280;47577;43.610;25.010;2023-04-30T08:25:56;100269.13;;;17.27;43.71
61682;BME280;47577;43.610;25.010;2023-04-30T08:28:22;100258.44;;;17.40;45.21
61682;BME280;47577;43.610;25.010;2023-04-30T08:30:47;100262.41;;;17.61;46.98
61682;BME280;47577;43.610;25.010;2023-04-30T08:33:13;100263.22;;;17.90;46.06
61682;BME280;47577;43.610;25.010;2023-04-30T08:35:39;100252.72;;;18.13;46.40
61682;BME280;47577;43.610;25.010;2023-04-30T08:38:04;100247.91;;;18.31;48.12
61682;BME280;47577;43.610;25.010;2023-04-30T08:40:34;100249.34;;;18.50;48.82
61682;BME280;47577;43.610;25.010;2023-04-30T08:43:05;100250.75;;;18.68;46.96
61682;BME280;47577;43.610;25.010;2023-04-30T08:45:32;100253.28;;;18.84;45.23
61682;BME280;47577;43.610;25.010;2023-04-30T08:47:58;100237.28;;;18.55;44.73
61682;BME280;47577;43.610;25.010;2023-04-30T08:50:25;100248.59;;;18.60;43.04
61682;BME280;47577;43.610;25.010;2023-04-30T08:52:51;100233.63;;;18.56;46.00
61682;BME280;47577;43.610;25.010;2023-04-30T08:55:16;100239.59;;;18.87;44.42
61682;BME280;47577;43.610;25.010;2023-04-30T08:57:42;100235.88;;;19.01;39.87
61682;BME280;47577;43.610;25.010;2023-04-30T09:00:08;100234.81;;;19.04;40.19
61682;BME280;47577;43.610;25.010;2023-04-30T09:02:34;100238.25;;;19.06;40.39
61682;BME280;47577;43.610;25.010;2023-04-30T09:05:08;100243.09;;;19.13;39.42
61682;BME280;47577;43.610;25.010;2023-04-30T09:07:35;100235.59;;;18.93;39.02
61682;BME280;47577;43.610;25.010;2023-04-30T09:10:03;100225.44;;;18.71;39.00
61682;BME280;47577;43.610;25.010;2023-04-30T09:12:29;100215.22;;;18.76;40.65
61682;BME280;47577;43.610;25.010;2023-04-30T09:15:02;100225.44;;;18.96;40.71
61682;BME280;47577;43.610;25.010;2023-04-30T09:17:29;100220.94;;;18.84;42.61
61682;BME280;47577;43.610;25.010;2023-04-30T09:20:06;100224.44;;;19.23;41.39
61682;BME280;47577;43.610;25.010;2023-04-30T09:22:33;100218.31;;;19.21;40.66
61682;BME280;47577;43.610;25.010;2023-04-30T09:25:00;100207.06;;;19.51;39.43
61682;BME280;47577;43.610;25.010;2023-04-30T09:27:25;100210.16;;;19.34;38.28
61682;BME280;47577;43.610;25.010;2023-04-30T09:29:51;100204.31;;;19.64;38.88
61682;BME280;47577;43.610;25.010;2023-04-30T09:32:17;100209.63;;;19.90;40.31
61682;BME280;47577;43.610;25.010;2023-04-30T09:34:43;100202.91;;;19.96;36.67
61682;BME280;47577;43.610;25.010;2023-04-30T09:37:09;100202.19;;;20.05;38.54
61682;BME280;47577;43.610;25.010;2023-04-30T09:39:53;100204.59;;;20.32;37.51
61682;BME280;47577;43.610;25.010;2023-04-30T09:42:19;100199.66;;;20.15;37.69
61682;BME280;47577;43.610;25.010;2023-04-30T09:44:46;100200.59;;;20.38;37.63
61682;BME280;47577;43.610;25.010;2023-04-30T09:47:18;100193.66;;;20.22;38.59
61682;BME280;47577;43.610;25.010;2023-04-30T09:49:49;100185.78;;;20.08;38.27
61682;BME280;47577;43.610;25.010;2023-04-30T09:52:19;100188.84;;;20.15;39.75
61682;BME280;47577;43.610;25.010;2023-04-30T09:54:45;100184.22;;;20.17;41.17
61682;BME280;47577;43.610;25.010;2023-04-30T09:57:13;100179.03;;;20.02;39.22
61682;BME280;47577;43.610;25.010;2023-04-30T09:59:44;100182.09;;;20.09;38.79
61682;BME280;47577;43.610;25.010;2023-04-30T10:02:13;100185.59;;;20.34;39.17
61682;BME280;47577;43.610;25.010;2023-04-30T10:04:44;100183.63;;;20.36;37.83
61682;BME280;47577;43.610;25.010;2023-04-30T10:07:19;100177.81;;;20.64;37.35
61682;BME280;47577;43.610;25.010;2023-04-30T10:09:58;100184.63;;;20.46;38.90
61682;BME280;47577;43.610;25.010;2023-04-30T10:12:50;100183.16;;;20.53;36.88
61682;BME280;47577;43.610;25.010;2023-04-30T10:15:20;100175.59;;;20.12;35.85
61682;BME280;47577;43.610;25.010;2023-04-30T10:18:10;100168.44;;;20.35;40.00
61682;BME280;47577;43.610;25.010;2023-04-30T10:20:40;100168.84;;;20.75;38.61
61682;BME280;47577;43.610;25.010;2023-04-30T10:23:06;100173.63;;;20.94;36.58
61682;BME280;47577;43.610;25.010;2023-04-30T10:25:32;100166.22;;;20.51;34.94
61682;BME280;47577;43.610;25.010;2023-04-30T10:27:58;100170.19;;;20.70;36.90
61682;BME280;47577;43.610;25.010;2023-04-30T10:30:24;100159.22;;;20.49;36.60
61682;BME280;47577;43.610;25.010;2023-04-30T10:35:25;100163.41;;;20.53;35.11
61682;BME280;47577;43.610;25.010;2023-04-30T10:38:02;100164.66;;;20.82;36.95
61682;BME280;47577;43.610;25.010;2023-04-30T10:40:35;100152.38;;;21.01;35.76
61682;BME280;47577;43.610;25.010;2023-04-30T10:43:01;100145.41;;;21.31;36.13
61682;BME280;47577;43.610;25.010;2023-04-30T10:45:34;100144.69;;;21.72;34.40
61682;BME280;47577;43.610;25.010;2023-04-30T10:48:02;100149.66;;;21.88;35.33
61682;BME280;47577;43.610;25.010;2023-04-30T10:50:31;100142.91;;;21.83;34.16
61682;BME280;47577;43.610;25.010;2023-04-30T10:53:04;100149.22;;;21.28;36.74
61682;BME280;47577;43.610;25.010;2023-04-30T10:55:31;100145.41;;;21.31;35.87
61682;BME280;47577;43.610;25.010;2023-04-30T10:57:57;100149.09;;;21.30;36.83
61682;BME280;47577;43.610;25.010;2023-04-30T11:00:25;100123.38;;;21.47;35.70
61682;BME280;47577;43.610;25.010;2023-04-30T11:03:02;100140.28;;;21.92;34.92
61682;BME280;47577;43.610;25.010;2023-04-30T11:05:38;100135.06;;;21.80;31.13
61682;BME280;47577;43.610;25.010;2023-04-30T11:08:04;100134.66;;;21.84;31.81
61682;BME280;47577;43.610;25.010;2023-04-30T11:10:34;100132.19;;;21.60;30.96
61682;BME280;47577;43.610;25.010;2023-04-30T11:13:06;100133.41;;;21.67;31.02
61682;BME280;47577;43.610;25.010;2023-04-30T11:15:39;100141.19;;;22.03;31.01
61682;BME280;47577;43.610;25.010;2023-04-30T11:18:07;100130.31;;;22.14;31.22
61682;BME280;47577;43.610;25.010;2023-04-30T11:20:38;100131.16;;;21.72;32.60
61682;BME280;47577;43.610;25.010;2023-04-30T11:23:14;100127.41;;;21.85;29.35
61682;BME280;47577;43.610;25.010;2023-04-30T11:25:41;100116.94;;;21.91;30.51
61682;BME280;47577;43.610;25.010;2023-04-30T11:28:22;100125.56;;;22.27;30.74
61682;BME280;47577;43.610;25.010;2023-04-30T11:30:55;100122.88;;;22.58;31.88
61682;BME280;47577;43.610;25.010;2023-04-30T11:33:24;100122.25;;;22.76;30.70
61682;BME280;47577;43.610;25.010;2023-04-30T11:35:50;100119.09;;;22.80;29.55
61682;BME280;47577;43.610;25.010;2023-04-30T11:38:26;100111.28;;;22.77;31.65
61682;BME280;47577;43.610;25.010;2023-04-30T11:40:53;100114.69;;;22.79;29.78
61682;BME280;47577;43.610;25.010;2023-04-30T11:43:22;100114.94;;;22.67;30.18
61682;BME280;47577;43.610;25.010;2023-04-30T11:48:36;100115.25;;;22.21;27.58
61682;BME280;47577;43.610;25.010;2023-04-30T11:51:15;100107.97;;;22.43;29.23
61682;BME280;47577;43.610;25.010;2023-04-30T11:53:42;100110.25;;;22.38;28.60
61682;BME280;47577;43.610;25.010;2023-04-30T11:56:07;100105.38;;;22.72;30.75
61682;BME280;47577;43.610;25.010;2023-04-30T11:58:35;100102.78;;;23.11;32.23
61682;BME280;47577;43.610;25.010;2023-04-30T12:01:02;100104.28;;;23.54;31.78
61682;BME280;47577;43.610;25.010;2023-04-30T12:03:28;100092.28;;;23.77;32.14
61682;BME280;47577;43.610;25.010;2023-04-30T12:05:54;100103.31;;;22.95;32.99
61682;BME280;47577;43.610;25.010;2023-04-30T12:08:20;100110.25;;;22.38;30.86
61682;BME280;47577;43.610;25.010;2023-04-30T12:10:46;100102.09;;;22.69;30.15
61682;BME280;47577;43.610;25.010;2023-04-30T12:13:14;100099.81;;;22.33;31.11
61682;BME280;47577;43.610;25.010;2023-04-30T12:15:41;100098.13;;;22.73;28.23
61682;BME280;47577;43.610;25.010;2023-04-30T12:18:11;100094.59;;;22.92;29.21
61682;BME280;47577;43.610;25.010;2023-04-30T12:20:38;100093.34;;;22.96;29.43
61682;BME280;47577;43.610;25.010;2023-04-30T12:23:05;100098.91;;;22.94;28.57
61682;BME280;47577;43.610;25.010;2023-04-30T12:25:40;100092.03;;;22.90;27.69
61682;BME280;47577;43.610;25.010;2023-04-30T12:28:06;100088.22;;;23.03;30.64
61682;BME280;47577;43.610;25.010;2023-04-30T12:30:32;100079.41;;;23.10;29.41
61682;BME280;47577;43.610;25.010;2023-04-30T12:32:59;100077.28;;;23.53;28.58
61682;BME280;47577;43.610;25.010;2023-04-30T12:35:27;100085.69;;;23.50;28.29
61682;BME280;47577;43.610;25.010;2023-04-30T12:38:01;100080.13;;;23.42;28.35
61682;BME280;47577;43.610;25.010;2023-04-30T12:40:27;100071.28;;;23.49;28.79
61682;BME280;47577;43.610;25.010;2023-04-30T12:43:14;100076.28;;;23.73;29.81
61682;BME280;47577;43.610;25.010;2023-04-30T12:45:45;100061.38;;;23.97;27.69
61682;BME280;47577;43.610;25.010;2023-04-30T12:48:13;100067.69;;;23.98;28.54
61682;BME280;47577;43.610;25.010;2023-04-30T12:50:39;100060.25;;;24.00;28.34
61682;BME280;47577;43.610;25.010;2023-04-30T12:53:05;100054.03;;;24.27;28.60
61682;BME280;47577;43.610;25.010;2023-04-30T12:55:32;100062.53;;;24.04;29.20
61682;BME280;47577;43.610;25.010;2023-04-30T13:00:48;100053.34;;;24.15;29.57
61682;BME280;47577;43.610;25.010;2023-04-30T13:03:16;100059.66;;;24.43;29.18
61682;BME280;47577;43.610;25.010;2023-04-30T13:05:54;100049.34;;;24.09;30.21
61682;BME280;47577;43.610;25.010;2023-04-30T13:08:20;100052.06;;;24.47;29.21
61682;BME280;47577;43.610;25.010;2023-04-30T13:10:46;100041.91;;;24.12;28.33